createdAt,value
2023-03-26T00:01:36.304Z,11.69
2023-03-26T00:04:05.643Z,11.68
2023-03-26T00:06:38.743Z,11.67
2023-03-26T00:09:12.995Z,11.65
2023-03-26T00:11:39.902Z,11.67
2023-03-26T00:14:06.680Z,11.68
2023-03-26T00:16:33.897Z,11.67
2023-03-26T00:19:02.392Z,11.65
2023-03-26T00:21:30.749Z,11.67
2023-03-26T00:24:14.777Z,11.64
2023-03-26T00:26:42.224Z,11.68
2023-03-26T00:29:10.164Z,11.69
2023-03-26T00:31:39.840Z,11.71
2023-03-26T00:34:07.106Z,11.73
2023-03-26T00:36:35.962Z,11.75
2023-03-26T00:39:05.902Z,11.75
2023-03-26T00:41:36.865Z,11.68
2023-03-26T00:44:04.207Z,11.76
2023-03-26T00:46:32.031Z,11.75
2023-03-26T00:49:00.557Z,11.75
2023-03-26T00:51:28.761Z,11.76
2023-03-26T00:53:57.249Z,11.77
2023-03-26T00:56:24.779Z,11.80
2023-03-26T00:58:51.960Z,11.82
2023-03-26T01:01:29.148Z,11.80
2023-03-26T01:04:08.279Z,11.81
2023-03-26T01:06:41.316Z,11.82
2023-03-26T01:09:18.673Z,11.83
2023-03-26T01:11:47.806Z,11.88
2023-03-26T01:14:23.590Z,11.89
2023-03-26T01:16:58.739Z,11.90
2023-03-26T01:19:45.775Z,11.88
2023-03-26T01:22:24.364Z,11.89
2023-03-26T01:24:53.486Z,11.93
2023-03-26T01:27:43.254Z,11.91
2023-03-26T01:30:36.995Z,11.91
2023-03-26T01:33:29.943Z,11.92
2023-03-26T01:36:13.358Z,11.94
2023-03-26T01:39:03.606Z,11.94
2023-03-26T01:41:44.256Z,11.97
2023-03-26T01:44:27.578Z,11.99
2023-03-26T01:46:55.394Z,12.02
2023-03-26T01:49:22.392Z,12.01
2023-03-26T01:51:51.185Z,12.00
2023-03-26T01:54:21.851Z,11.99
2023-03-26T01:57:14.187Z,11.93
2023-03-26T02:00:18.928Z,11.91
2023-03-26T02:03:17.511Z,11.86
2023-03-26T02:05:54.625Z,11.86
2023-03-26T02:08:35.444Z,11.83
2023-03-26T02:11:13.202Z,11.83
2023-03-26T02:13:43.017Z,11.86
2023-03-26T02:16:16.169Z,11.87
2023-03-26T02:18:44.972Z,11.87
2023-03-26T02:21:19.990Z,11.86
2023-03-26T02:23:50.699Z,11.86
2023-03-26T02:26:20.203Z,11.88
2023-03-26T02:29:04.510Z,11.89
2023-03-26T02:31:32.719Z,11.87
2023-03-26T02:33:59.550Z,11.84
2023-03-26T02:36:29.136Z,11.83
2023-03-26T02:39:00.162Z,11.83
2023-03-26T02:41:28.693Z,11.80
2023-03-26T02:44:02.625Z,11.80
2023-03-26T02:46:55.362Z,11.77
2023-03-26T02:49:51.224Z,11.72
2023-03-26T02:52:24.499Z,11.68
2023-03-26T02:54:53.446Z,11.64
2023-03-26T02:57:23.846Z,11.59
2023-03-26T03:00:13.077Z,11.57
2023-03-26T03:02:47.813Z,11.55
2023-03-26T03:05:31.490Z,11.53
2023-03-26T03:08:18.193Z,11.55
2023-03-26T03:11:18.305Z,11.54
2023-03-26T03:13:47.086Z,11.60
2023-03-26T03:16:21.214Z,11.63
2023-03-26T03:18:54.281Z,11.66
2023-03-26T03:21:28.121Z,11.69
2023-03-26T03:24:00.204Z,11.74
2023-03-26T03:26:29.709Z,11.79
2023-03-26T03:28:59.137Z,11.83
2023-03-26T03:31:27.176Z,11.85
2023-03-26T03:33:59.624Z,11.87
2023-03-26T03:36:30.317Z,11.86
2023-03-26T03:39:05.026Z,11.87
2023-03-26T03:41:32.700Z,11.87
2023-03-26T03:44:02.256Z,11.87
2023-03-26T03:46:31.662Z,11.88
2023-03-26T03:48:58.908Z,11.91
2023-03-26T03:51:31.377Z,11.92
2023-03-26T03:54:17.844Z,11.94
2023-03-26T03:56:48.678Z,11.95
2023-03-26T03:59:37.209Z,11.95
2023-03-26T04:02:07.647Z,11.94
2023-03-26T04:04:41.866Z,11.96
2023-03-26T04:07:11.654Z,11.97
2023-03-26T04:10:03.032Z,11.96
2023-03-26T04:12:47.877Z,11.97
2023-03-26T04:15:16.861Z,11.97
2023-03-26T04:17:45.418Z,11.97
2023-03-26T04:20:16.066Z,11.97
2023-03-26T04:22:46.588Z,11.98
2023-03-26T04:25:15.528Z,11.90
2023-03-26T04:27:49.122Z,11.94
2023-03-26T04:30:24.623Z,11.92
2023-03-26T04:33:04.151Z,11.90
2023-03-26T04:35:37.015Z,11.87
2023-03-26T04:38:06.439Z,11.84
2023-03-26T04:40:38.974Z,11.80
2023-03-26T04:43:24.397Z,11.80
2023-03-26T04:46:23.560Z,11.77
2023-03-26T04:49:02.045Z,11.80
2023-03-26T04:51:38.234Z,11.80
2023-03-26T04:54:14.318Z,11.82
2023-03-26T04:57:03.745Z,11.82
2023-03-26T04:59:41.185Z,11.88
2023-03-26T05:02:12.895Z,11.91
2023-03-26T05:04:49.850Z,11.93
2023-03-26T05:07:23.750Z,11.92
2023-03-26T05:09:54.168Z,11.94
2023-03-26T05:12:34.547Z,11.96
2023-03-26T05:15:24.653Z,11.94
2023-03-26T05:18:06.152Z,11.93
2023-03-26T05:20:45.273Z,11.92
2023-03-26T05:23:12.572Z,11.92
2023-03-26T05:25:47.058Z,11.93
2023-03-26T05:28:19.181Z,11.95
2023-03-26T05:30:54.220Z,11.97
2023-03-26T05:33:23.313Z,11.99
2023-03-26T05:36:13.370Z,11.99
2023-03-26T05:38:47.557Z,12.03
2023-03-26T05:41:19.387Z,12.08
2023-03-26T05:43:48.776Z,12.10
2023-03-26T05:46:20.262Z,12.14
2023-03-26T05:48:47.572Z,12.13
2023-03-26T05:51:17.893Z,12.14
2023-03-26T05:53:56.771Z,12.12
2023-03-26T05:56:26.297Z,12.09
2023-03-26T05:59:12.017Z,12.06
2023-03-26T06:02:04.945Z,12.06
2023-03-26T06:04:57.731Z,12.06
2023-03-26T06:07:35.626Z,12.07
2023-03-26T06:10:10.612Z,12.08
2023-03-26T06:12:38.118Z,12.11
2023-03-26T06:15:07.079Z,12.13
2023-03-26T06:17:47.856Z,12.16
2023-03-26T06:20:35.499Z,12.19
2023-03-26T06:23:08.515Z,12.21
2023-03-26T06:25:51.255Z,12.23
2023-03-26T06:28:38.510Z,12.23
2023-03-26T06:31:20.933Z,12.26
2023-03-26T06:33:56.872Z,12.27
2023-03-26T06:36:23.842Z,12.29
2023-03-26T06:38:51.375Z,12.31
2023-03-26T06:41:18.234Z,12.35
2023-03-26T06:44:03.628Z,12.38
2023-03-26T06:47:08.353Z,12.40
2023-03-26T06:49:50.199Z,12.43
2023-03-26T06:52:37.789Z,12.46
2023-03-26T06:55:28.355Z,12.48
2023-03-26T06:58:06.182Z,12.51
2023-03-26T07:00:56.040Z,12.50
2023-03-26T07:03:41.455Z,12.52
2023-03-26T07:06:27.393Z,12.53
2023-03-26T07:09:32.581Z,12.54
2023-03-26T07:12:22.229Z,12.53
2023-03-26T07:15:08.372Z,12.50
2023-03-26T07:17:56.260Z,12.48
2023-03-26T07:20:27.334Z,12.46
2023-03-26T07:22:54.856Z,12.41
2023-03-26T07:25:41.013Z,12.34
2023-03-26T07:28:36.010Z,12.28
2023-03-26T07:32:18.484Z,12.23
2023-03-26T07:35:14.678Z,12.20
2023-03-26T07:38:35.247Z,12.15
2023-03-26T07:41:59.816Z,12.14
2023-03-26T07:45:33.774Z,12.08
2023-03-26T07:48:27.329Z,12.09
2023-03-26T07:51:21.132Z,12.06
2023-03-26T07:54:11.178Z,12.02
2023-03-26T07:57:03.533Z,11.94
2023-03-26T07:59:51.984Z,11.96
2023-03-26T08:03:01.228Z,11.96
2023-03-26T08:06:22.250Z,11.98
2023-03-26T08:09:15.382Z,11.97
2023-03-26T08:12:21.180Z,11.94
2023-03-26T08:15:43.843Z,11.92
2023-03-26T08:18:52.305Z,11.92
2023-03-26T08:21:28.780Z,11.93
2023-03-26T08:24:10.934Z,11.93
2023-03-26T08:27:08.634Z,11.93
2023-03-26T08:29:55.019Z,11.97
2023-03-26T08:32:22.401Z,12.03
2023-03-26T08:34:49.577Z,12.06
2023-03-26T08:37:16.402Z,12.09
2023-03-26T08:39:43.189Z,12.14
2023-03-26T08:42:42.374Z,12.13
2023-03-26T08:45:30.330Z,12.18
2023-03-26T08:48:28.872Z,12.25
2023-03-26T08:51:50.466Z,12.29
2023-03-26T08:54:52.359Z,12.34
2023-03-26T08:58:08.906Z,12.40
2023-03-26T09:00:57.708Z,12.51
2023-03-26T09:04:03.680Z,12.58
2023-03-26T09:07:09.743Z,12.64
2023-03-26T09:10:28.031Z,12.71
2023-03-26T09:13:28.587Z,12.81
2023-03-26T09:16:06.217Z,12.90
2023-03-26T09:19:30.618Z,12.95
2023-03-26T09:22:40.285Z,13.05
2023-03-26T09:25:55.730Z,13.11
2023-03-26T09:29:00.786Z,13.18
2023-03-26T09:31:59.437Z,13.26
2023-03-26T09:35:06.288Z,13.36
2023-03-26T09:38:03.285Z,13.50
2023-03-26T09:40:46.342Z,13.66
2023-03-26T09:43:59.946Z,13.84
2023-03-26T09:46:41.732Z,14.00
2023-03-26T09:49:29.590Z,14.10
2023-03-26T09:52:18.026Z,14.19
2023-03-26T09:55:00.997Z,14.25
2023-03-26T09:57:39.515Z,14.28
2023-03-26T10:00:27.335Z,14.34
2023-03-26T10:03:26.899Z,14.40
2023-03-26T10:06:09.690Z,14.47
2023-03-26T10:08:51.951Z,14.54
2023-03-26T10:11:56.290Z,14.61
2023-03-26T10:14:29.319Z,14.71
2023-03-26T10:17:35.788Z,14.71
2023-03-26T10:20:26.705Z,14.78
2023-03-26T10:23:04.830Z,14.83
2023-03-26T10:26:09.793Z,14.88
2023-03-26T10:29:12.124Z,14.89
2023-03-26T10:32:06.562Z,14.97
2023-03-26T10:34:51.780Z,14.98
2023-03-26T10:37:55.446Z,14.95
2023-03-26T10:41:00.492Z,14.88
2023-03-26T10:43:57.660Z,14.79
2023-03-26T10:47:22.385Z,14.69
2023-03-26T10:50:23.950Z,14.62
2023-03-26T10:53:07.206Z,14.66
2023-03-26T10:55:47.416Z,14.65
2023-03-26T10:58:24.555Z,14.68
2023-03-26T11:01:11.832Z,14.68
2023-03-26T11:03:56.184Z,14.76
2023-03-26T11:06:43.067Z,14.85
2023-03-26T11:09:45.004Z,15.00
2023-03-26T11:12:33.606Z,15.16
2023-03-26T11:15:52.508Z,15.35
2023-03-26T11:19:11.429Z,15.56
2023-03-26T11:21:54.424Z,15.80
2023-03-26T11:24:43.648Z,15.97
2023-03-26T11:27:30.146Z,16.10
2023-03-26T11:30:12.346Z,16.17
2023-03-26T11:32:45.854Z,16.24
2023-03-26T11:35:40.158Z,16.29
2023-03-26T11:38:21.924Z,16.33
2023-03-26T11:40:55.132Z,16.36
2023-03-26T11:43:36.767Z,16.33
2023-03-26T11:46:07.580Z,16.26
2023-03-26T11:48:44.312Z,16.11
2023-03-26T11:51:36.661Z,15.87
2023-03-26T11:54:06.007Z,15.78
2023-03-26T11:57:05.734Z,15.70
2023-03-26T11:59:55.562Z,15.61
2023-03-26T12:02:33.921Z,15.62
2023-03-26T12:05:26.613Z,15.58
2023-03-26T12:08:03.539Z,15.61
2023-03-26T12:10:39.440Z,15.64
2023-03-26T12:13:53.392Z,15.63
2023-03-26T12:16:22.439Z,15.68
2023-03-26T12:19:00.286Z,15.75
2023-03-26T12:21:27.308Z,15.89
2023-03-26T12:24:08.717Z,15.94
2023-03-26T12:26:42.815Z,16.10
2023-03-26T12:29:17.327Z,16.21
2023-03-26T12:32:03.068Z,16.29
2023-03-26T12:34:36.128Z,16.40
2023-03-26T12:37:06.757Z,16.45
2023-03-26T12:40:10.665Z,16.52
2023-03-26T12:44:50.756Z,16.59
2023-03-26T12:45:24.093Z,16.64
2023-03-26T12:47:59.727Z,16.68
2023-03-26T12:51:06.866Z,16.63
2023-03-26T12:54:15.241Z,16.66
2023-03-26T12:56:47.729Z,16.72
2023-03-26T12:59:36.394Z,16.71
2023-03-26T13:02:43.761Z,16.74
2023-03-26T13:05:39.827Z,16.76
2023-03-26T13:08:46.530Z,16.78
2023-03-26T13:11:23.772Z,16.83
2023-03-26T13:13:59.420Z,16.84
2023-03-26T13:16:44.501Z,16.80
2023-03-26T13:19:27.022Z,16.77
2023-03-26T13:22:09.029Z,16.75
2023-03-26T13:25:23.726Z,16.74
2023-03-26T13:28:07.509Z,16.79
2023-03-26T13:30:42.089Z,16.84
2023-03-26T13:33:20.822Z,16.84
2023-03-26T13:36:14.344Z,16.84
2023-03-26T13:39:24.830Z,16.78
2023-03-26T13:42:26.628Z,16.74
2023-03-26T13:45:30.097Z,16.72
2023-03-26T13:47:59.156Z,16.71
2023-03-26T13:50:34.187Z,16.63
2023-03-26T13:53:13.773Z,16.59
2023-03-26T13:55:55.908Z,16.54
2023-03-26T13:58:38.745Z,16.53
2023-03-26T14:01:19.388Z,16.48
2023-03-26T14:04:10.867Z,16.38
2023-03-26T14:06:57.082Z,16.31
2023-03-26T14:09:48.278Z,16.25
2023-03-26T14:12:48.765Z,16.19
2023-03-26T14:15:26.756Z,16.15
2023-03-26T14:18:22.638Z,16.09
2023-03-26T14:21:17.057Z,16.06
2023-03-26T14:24:01.952Z,16.04
2023-03-26T14:26:58.493Z,15.99
2023-03-26T14:29:56.514Z,15.91
2023-03-26T14:32:37.829Z,15.81
2023-03-26T14:35:23.254Z,15.69
2023-03-26T14:38:07.897Z,15.52
2023-03-26T14:40:57.892Z,15.36
2023-03-26T14:43:41.776Z,15.18
2023-03-26T14:46:23.686Z,14.71
2023-03-26T14:49:32.601Z,14.18
2023-03-26T14:52:36.835Z,13.67
2023-03-26T14:55:14.031Z,13.27
2023-03-26T14:58:07.442Z,12.94
2023-03-26T15:01:24.209Z,12.54
2023-03-26T15:04:09.652Z,12.31
2023-03-26T15:07:18.819Z,12.08
2023-03-26T15:10:11.523Z,11.86
2023-03-26T15:13:03.578Z,11.73
2023-03-26T15:15:57.698Z,11.59
2023-03-26T15:19:04.006Z,11.48
2023-03-26T15:21:57.916Z,11.38
2023-03-26T15:24:46.205Z,11.27
2023-03-26T15:27:57.425Z,11.17
2023-03-26T15:30:53.693Z,11.14
2023-03-26T15:34:06.070Z,11.10
2023-03-26T15:37:10.624Z,11.16
2023-03-26T15:40:16.537Z,11.18
2023-03-26T15:43:11.049Z,11.25
2023-03-26T15:46:02.739Z,11.33
2023-03-26T15:48:57.653Z,11.41
2023-03-26T15:51:47.635Z,11.52
2023-03-26T15:54:36.864Z,11.60
2023-03-26T15:57:32.740Z,11.67
2023-03-26T16:00:22.157Z,11.75
2023-03-26T16:03:10.795Z,11.79
2023-03-26T16:06:19.614Z,11.84
2023-03-26T16:08:58.135Z,11.87
2023-03-26T16:11:53.989Z,11.85
2023-03-26T16:14:36.230Z,11.85
2023-03-26T16:17:06.366Z,11.84
2023-03-26T16:19:40.965Z,11.83
2023-03-26T16:22:16.236Z,11.86
2023-03-26T16:24:47.619Z,11.89
2023-03-26T16:27:14.284Z,11.96
2023-03-26T16:29:59.931Z,11.91
2023-03-26T16:32:45.978Z,11.87
2023-03-26T16:35:16.472Z,11.87
2023-03-26T16:37:50.338Z,11.87
2023-03-26T16:40:17.740Z,11.92
2023-03-26T16:43:14.948Z,11.92
2023-03-26T16:46:15.513Z,12.02
2023-03-26T16:48:57.296Z,12.14
2023-03-26T16:52:02.494Z,12.32
2023-03-26T16:54:50.545Z,12.43
2023-03-26T16:57:36.849Z,12.47
2023-03-26T17:00:48.432Z,12.47
2023-03-26T17:03:35.433Z,12.48
2023-03-26T17:06:17.397Z,12.49
2023-03-26T17:09:05.357Z,12.43
2023-03-26T17:11:56.456Z,12.35
2023-03-26T17:14:53.822Z,12.26
2023-03-26T17:17:43.807Z,12.21
2023-03-26T17:21:01.880Z,12.15
2023-03-26T17:23:55.423Z,12.10
2023-03-26T17:26:53.734Z,11.97
2023-03-26T17:29:44.854Z,11.92
2023-03-26T17:32:14.990Z,11.84
2023-03-26T17:34:50.924Z,11.73
2023-03-26T17:37:23.453Z,11.68
2023-03-26T17:40:01.994Z,11.63
2023-03-26T17:42:32.638Z,11.60
2023-03-26T17:45:23.300Z,11.51
2023-03-26T17:48:12.907Z,11.46
2023-03-26T17:50:56.641Z,11.44
2023-03-26T17:53:30.830Z,11.44
2023-03-26T17:56:03.626Z,11.43
2023-03-26T17:58:36.360Z,11.39
2023-03-26T18:01:16.584Z,11.38
2023-03-26T18:03:50.594Z,11.39
2023-03-26T18:06:40.994Z,11.38
2023-03-26T18:09:46.704Z,11.39
2023-03-26T18:12:31.267Z,11.41
2023-03-26T18:15:58.305Z,11.38
2023-03-26T18:18:44.104Z,11.40
2023-03-26T18:21:19.993Z,11.40
2023-03-26T18:23:48.985Z,11.40
2023-03-26T18:26:21.855Z,11.38
2023-03-26T18:29:09.174Z,11.35
2023-03-26T18:31:40.913Z,11.35
2023-03-26T18:34:18.929Z,11.32
2023-03-26T18:37:00.998Z,11.26
2023-03-26T18:39:28.094Z,11.24
2023-03-26T18:41:55.252Z,11.17
2023-03-26T18:44:22.262Z,11.13
2023-03-26T18:46:54.483Z,11.06
2023-03-26T18:49:22.112Z,10.98
2023-03-26T18:51:56.899Z,10.92
2023-03-26T18:54:30.850Z,10.81
2023-03-26T18:56:58.814Z,10.76
2023-03-26T18:59:30.811Z,10.67
2023-03-26T19:01:59.836Z,10.62
2023-03-26T19:04:31.679Z,10.57
2023-03-26T19:06:59.321Z,10.54
2023-03-26T19:09:32.382Z,10.54
2023-03-26T19:12:16.576Z,10.50
2023-03-26T19:15:13.970Z,10.49
2023-03-26T19:17:48.198Z,10.50
2023-03-26T19:20:30.496Z,10.45
2023-03-26T19:22:58.222Z,10.45
2023-03-26T19:25:48.066Z,10.39
2023-03-26T19:28:25.688Z,10.39
2023-03-26T19:30:57.490Z,10.36
2023-03-26T19:33:33.583Z,10.34
2023-03-26T19:36:17.778Z,10.31
2023-03-26T19:38:52.038Z,10.26
2023-03-26T19:41:26.847Z,10.24
2023-03-26T19:43:57.898Z,10.24
2023-03-26T19:46:26.680Z,10.20
2023-03-26T19:48:56.617Z,10.16
2023-03-26T19:51:35.675Z,10.08
2023-03-26T19:54:13.811Z,10.08
2023-03-26T19:56:40.659Z,10.09
2023-03-26T19:59:07.661Z,10.09
2023-03-26T20:01:34.821Z,10.07
2023-03-26T20:04:06.239Z,10.07
2023-03-26T20:06:43.796Z,10.08
2023-03-26T20:09:13.124Z,10.09
2023-03-26T20:11:40.559Z,10.09
2023-03-26T20:14:16.464Z,10.06
2023-03-26T20:16:45.289Z,10.09
2023-03-26T20:19:13.845Z,10.08
2023-03-26T20:21:41.189Z,10.08
2023-03-26T20:24:14.548Z,10.07
2023-03-26T20:26:41.866Z,10.10
2023-03-26T20:29:08.856Z,10.11
2023-03-26T20:31:35.673Z,10.13
2023-03-26T20:34:02.539Z,10.13
2023-03-26T20:36:33.345Z,10.13
2023-03-26T20:39:07.915Z,10.10
2023-03-26T20:41:38.049Z,10.09
2023-03-26T20:44:13.402Z,10.01
2023-03-26T20:46:40.298Z,10.09
2023-03-26T20:49:07.182Z,10.10
2023-03-26T20:51:33.993Z,10.11
2023-03-26T20:54:00.832Z,10.12
2023-03-26T20:56:28.088Z,10.14
2023-03-26T20:59:09.979Z,10.15
2023-03-26T21:01:38.570Z,10.17
2023-03-26T21:04:06.453Z,10.20
2023-03-26T21:06:33.435Z,10.24
2023-03-26T21:09:00.693Z,10.27
2023-03-26T21:11:51.931Z,10.26
2023-03-26T21:14:21.753Z,10.31
2023-03-26T21:16:49.137Z,10.34
2023-03-26T21:19:16.292Z,10.37
2023-03-26T21:22:05.757Z,10.37
2023-03-26T21:24:55.048Z,10.40
2023-03-26T21:27:51.520Z,10.43
2023-03-26T21:30:18.828Z,10.47
2023-03-26T21:32:46.674Z,10.49
2023-03-26T21:35:14.889Z,10.53
2023-03-26T21:37:43.913Z,10.56
2023-03-26T21:40:16.586Z,10.60
2023-03-26T21:42:49.165Z,10.65
2023-03-26T21:45:18.070Z,10.68
2023-03-26T21:47:46.311Z,10.74
2023-03-26T21:50:21.598Z,10.76
2023-03-26T21:52:50.670Z,10.82
2023-03-26T21:55:20.914Z,10.85
2023-03-26T21:58:28.206Z,10.83
2023-03-26T22:01:34.421Z,10.80
2023-03-26T22:04:39.502Z,10.77
2023-03-26T22:07:18.628Z,10.75
2023-03-26T22:09:45.748Z,10.74
2023-03-26T22:12:12.911Z,10.72
2023-03-26T22:14:40.452Z,10.70
2023-03-26T22:17:07.371Z,10.68
2023-03-26T22:19:34.588Z,10.65
2023-03-26T22:22:02.007Z,10.64
2023-03-26T22:24:29.567Z,10.61
2023-03-26T22:26:56.486Z,10.61
2023-03-26T22:29:23.309Z,10.59
2023-03-26T22:31:50.088Z,10.57
2023-03-26T22:34:17.630Z,10.55
2023-03-26T22:36:44.458Z,10.51
2023-03-26T22:39:12.181Z,10.48
2023-03-26T22:41:39.135Z,10.47
2023-03-26T22:44:19.177Z,10.44
2023-03-26T22:46:48.790Z,10.41
2023-03-26T22:49:16.227Z,10.38
2023-03-26T22:51:43.363Z,10.36
2023-03-26T22:54:10.208Z,10.35
2023-03-26T22:56:37.078Z,10.32
2023-03-26T22:59:04.003Z,10.29
2023-03-26T23:01:31.070Z,10.25
2023-03-26T23:03:58.160Z,10.22
2023-03-26T23:06:25.142Z,10.20
2023-03-26T23:08:52.028Z,10.18
2023-03-26T23:11:21.807Z,10.14
2023-03-26T23:13:48.771Z,10.13
2023-03-26T23:16:17.373Z,10.13
2023-03-26T23:18:44.773Z,10.12
2023-03-26T23:21:19.062Z,10.09
2023-03-26T23:23:47.042Z,10.10
2023-03-26T23:26:14.892Z,10.09
2023-03-26T23:28:43.086Z,10.07
2023-03-26T23:31:12.196Z,10.05
2023-03-26T23:33:46.429Z,10.03
2023-03-26T23:36:19.304Z,10.00
2023-03-26T23:38:48.038Z,9.98
2023-03-26T23:41:18.642Z,9.95
2023-03-26T23:43:54.596Z,9.95
2023-03-26T23:46:34.477Z,9.89
2023-03-26T23:49:04.604Z,9.88
2023-03-26T23:51:32.773Z,9.84
2023-03-26T23:54:00.365Z,9.82
2023-03-26T23:56:30.288Z,9.78
2023-03-26T23:58:58.051Z,9.77
